createdAt,value
2018-06-01T02:31:24.133Z,2.80
2018-06-01T02:33:53.418Z,2.97
2018-06-01T02:36:21.876Z,2.90
2018-06-01T02:38:50.280Z,2.80
2018-06-01T02:41:18.773Z,2.80
2018-06-01T02:43:47.959Z,2.40
2018-06-01T02:46:16.500Z,2.55
2018-06-01T02:48:44.948Z,2.80
2018-06-01T02:51:13.393Z,2.78
2018-06-01T02:53:41.820Z,2.80
2018-06-01T02:56:11.017Z,2.70
2018-06-01T02:58:39.441Z,3.15
2018-06-01T03:01:07.881Z,3.42
2018-06-01T03:03:37.064Z,3.08
2018-06-01T03:06:05.503Z,2.70
2018-06-01T03:08:33.925Z,2.60
2018-06-01T03:11:02.404Z,2.50
2018-06-01T03:13:31.583Z,2.67
2018-06-01T03:16:00.035Z,2.60
2018-06-01T03:18:29.201Z,4.85
2018-06-01T03:20:57.652Z,2.60
2018-06-01T03:23:26.056Z,2.65
2018-06-01T03:25:54.472Z,2.50
2018-06-01T03:28:22.904Z,2.50
2018-06-01T03:30:51.303Z,2.50
2018-06-01T03:33:19.741Z,2.45
2018-06-01T03:35:48.906Z,2.67
2018-06-01T03:38:17.348Z,2.42
2018-06-01T03:40:45.747Z,2.60
2018-06-01T03:43:14.971Z,2.30
2018-06-01T03:45:43.389Z,2.70
2018-06-01T03:48:11.835Z,2.60
2018-06-01T03:50:40.253Z,3.20
2018-06-01T03:53:08.703Z,2.58
2018-06-01T03:55:37.126Z,3.00
2018-06-01T03:58:05.572Z,2.60
2018-06-01T04:00:33.999Z,2.97
2018-06-01T04:03:03.214Z,2.90
2018-06-01T04:05:32.397Z,3.20
2018-06-01T04:08:00.861Z,2.95
2018-06-01T04:10:29.289Z,4.30
2018-06-01T04:12:58.482Z,3.90
2018-06-01T04:15:27.697Z,3.90
2018-06-01T04:17:56.873Z,3.70
2018-06-01T04:20:25.311Z,3.50
2018-06-01T04:22:53.733Z,3.50
2018-06-01T04:25:22.180Z,2.90
2018-06-01T04:27:50.601Z,3.17
2018-06-01T04:30:19.045Z,2.85
2018-06-01T04:32:47.458Z,2.80
2018-06-01T04:35:15.912Z,3.00
2018-06-01T04:37:44.319Z,3.75
2018-06-01T04:40:12.751Z,3.60
2018-06-01T04:42:41.938Z,3.50
2018-06-01T04:45:10.370Z,3.17
2018-06-01T04:47:38.798Z,3.90
2018-06-01T04:50:07.331Z,5.62
2018-06-01T04:52:35.797Z,8.73
2018-06-01T04:55:04.267Z,17.43
2018-06-01T04:57:33.529Z,6.95
2018-06-01T05:00:01.981Z,3.00
2018-06-01T05:02:30.436Z,8.33
2018-06-01T05:04:58.887Z,9.05
2018-06-01T05:07:27.397Z,7.22
2018-06-01T05:09:55.867Z,6.07
2018-06-01T05:12:24.422Z,4.63
2018-06-01T05:14:52.888Z,4.40
2018-06-01T05:17:21.350Z,3.78
2018-06-01T05:19:50.538Z,4.00
2018-06-01T05:22:19.063Z,3.75
2018-06-01T05:24:47.431Z,3.92
2018-06-01T05:27:16.632Z,4.10
2018-06-01T05:29:45.829Z,4.82
2018-06-01T05:32:15.052Z,6.80
2018-06-01T05:34:43.471Z,4.43
2018-06-01T05:37:11.922Z,6.40
2018-06-01T05:39:40.342Z,6.18
2018-06-01T05:42:08.808Z,9.95
2018-06-01T05:44:37.222Z,4.73
2018-06-01T05:47:05.666Z,5.28
2018-06-01T05:49:34.079Z,4.28
2018-06-01T05:52:02.668Z,3.53
2018-06-01T05:54:31.151Z,4.30
2018-06-01T05:56:59.603Z,3.60
2018-06-01T05:59:28.017Z,3.35
2018-06-01T06:01:56.480Z,3.40
2018-06-01T06:04:24.899Z,3.72
2018-06-01T06:06:53.343Z,3.80
2018-06-01T06:09:21.792Z,6.12
2018-06-01T06:11:50.221Z,3.65
2018-06-01T06:14:18.680Z,3.72
2018-06-01T06:16:47.860Z,4.20
2018-06-01T06:19:17.339Z,3.80
2018-06-01T06:21:45.758Z,3.50
2018-06-01T06:24:14.207Z,3.37
2018-06-01T06:26:42.619Z,3.53
2018-06-01T06:29:11.060Z,3.40
2018-06-01T06:31:40.374Z,3.50
2018-06-01T06:34:08.828Z,3.42
2018-06-01T06:36:37.999Z,3.47
2018-06-01T06:39:07.491Z,3.70
2018-06-01T06:41:35.934Z,3.40
2018-06-01T06:44:04.342Z,3.50
2018-06-01T06:46:32.812Z,3.47
2018-06-01T06:49:01.215Z,3.40
2018-06-01T06:51:29.656Z,3.20
2018-06-01T06:53:58.083Z,3.37
2018-06-01T06:56:26.531Z,3.60
2018-06-01T06:58:55.775Z,3.62
2018-06-01T07:01:24.220Z,3.40
2018-06-01T07:03:52.686Z,3.40
2018-06-01T07:06:21.919Z,3.60
2018-06-01T07:08:50.350Z,3.60
2018-06-01T07:11:18.808Z,3.50
2018-06-01T07:13:47.214Z,3.28
2018-06-01T07:16:15.813Z,3.53
2018-06-01T07:18:44.225Z,3.28
2018-06-01T07:21:14.272Z,3.37
2018-06-01T07:23:42.722Z,3.13
2018-06-01T07:26:11.927Z,3.20
2018-06-01T07:28:41.150Z,3.30
2018-06-01T07:31:09.546Z,3.10
2018-06-01T07:33:37.998Z,3.33
2018-06-01T07:36:07.544Z,3.17
2018-06-01T07:38:36.051Z,3.00
2018-06-01T07:41:04.469Z,3.12
2018-06-01T07:43:33.689Z,2.80
2018-06-01T07:46:02.856Z,2.80
2018-06-01T07:48:31.296Z,2.72
2018-06-01T07:50:59.717Z,2.90
2018-06-01T07:53:28.186Z,3.05
2018-06-01T07:55:56.598Z,2.70
2018-06-01T07:58:25.021Z,2.70
2018-06-01T08:00:53.454Z,2.78
2018-06-01T08:03:21.888Z,2.78
2018-06-01T08:05:50.353Z,2.95
2018-06-01T08:08:19.575Z,3.03
2018-06-01T08:10:48.086Z,2.67
2018-06-01T08:13:16.510Z,3.00
2018-06-01T08:15:44.955Z,2.87
2018-06-01T08:18:13.729Z,2.90
2018-06-01T08:20:42.181Z,3.10
2018-06-01T08:23:11.362Z,3.08
2018-06-01T08:25:39.799Z,2.90
2018-06-01T08:28:08.212Z,2.90
2018-06-01T08:30:36.665Z,3.17
2018-06-01T08:33:05.221Z,3.10
2018-06-01T08:35:33.685Z,3.10
2018-06-01T08:38:02.108Z,2.80
2018-06-01T08:40:31.340Z,3.00
2018-06-01T08:42:59.767Z,2.80
2018-06-01T08:45:28.190Z,2.60
2018-06-01T08:47:56.640Z,2.70
2018-06-01T08:50:25.090Z,3.15
2018-06-01T08:52:53.580Z,2.97
2018-06-01T08:55:22.016Z,2.75
2018-06-01T08:57:51.226Z,2.90
2018-06-01T09:00:19.654Z,2.77
2018-06-01T09:02:48.109Z,2.67
2018-06-01T09:05:16.526Z,2.87
2018-06-01T09:07:45.003Z,2.70
2018-06-01T09:10:13.534Z,3.05
2018-06-01T09:12:41.910Z,3.22
2018-06-01T09:15:10.371Z,3.08
2018-06-01T09:17:38.824Z,3.30
2018-06-01T09:20:07.324Z,2.97
2018-06-01T09:22:35.774Z,3.17
2018-06-01T09:25:04.328Z,3.10
2018-06-01T09:27:32.805Z,2.67
2018-06-01T09:30:01.261Z,2.80
2018-06-01T09:32:29.721Z,2.90
2018-06-01T09:34:58.921Z,2.72
2018-06-01T09:37:28.372Z,2.60
2018-06-01T09:39:57.069Z,2.60
2018-06-01T09:42:25.524Z,2.90
2018-06-01T09:44:55.619Z,3.00
2018-06-01T09:47:24.569Z,2.78
2018-06-01T09:49:53.040Z,2.45
2018-06-01T09:52:21.525Z,2.72
2018-06-01T09:54:49.961Z,2.53
2018-06-01T09:57:19.176Z,2.55
2018-06-01T09:59:48.372Z,2.30
2018-06-01T10:02:17.606Z,2.80
2018-06-01T10:04:46.030Z,2.55
2018-06-01T10:07:14.700Z,2.50
2018-06-01T10:09:43.120Z,2.70
2018-06-01T10:12:12.348Z,2.40
2018-06-01T10:14:40.796Z,2.67
2018-06-01T10:17:09.235Z,2.40
2018-06-01T10:19:37.688Z,2.40
2018-06-01T10:22:06.881Z,2.45
2018-06-01T10:24:36.097Z,2.37
2018-06-01T10:27:05.262Z,2.55
2018-06-01T10:29:33.720Z,2.37
2018-06-01T10:32:02.138Z,2.35
2018-06-01T10:34:30.604Z,2.20
2018-06-01T10:36:59.066Z,2.45
2018-06-01T10:39:27.579Z,2.03
2018-06-01T10:41:55.981Z,2.25
2018-06-01T10:44:24.428Z,2.20
2018-06-01T10:46:52.845Z,1.90
2018-06-01T10:49:21.311Z,2.20
2018-06-01T10:51:49.735Z,2.35
2018-06-01T10:54:18.196Z,2.10
2018-06-01T10:56:46.608Z,2.27
2018-06-01T10:59:15.841Z,2.20
2018-06-01T11:01:44.258Z,2.08
2018-06-01T11:04:12.712Z,2.25
2018-06-01T11:06:41.110Z,2.12
2018-06-01T11:09:09.561Z,2.00
2018-06-01T11:11:37.978Z,2.10
2018-06-01T11:14:07.192Z,2.17
2018-06-01T11:16:35.638Z,2.15
2018-06-01T11:19:04.111Z,2.08
2018-06-01T11:21:33.332Z,2.30
2018-06-01T11:24:01.793Z,2.12
2018-06-01T11:26:31.004Z,2.47
2018-06-01T11:28:59.473Z,2.33
2018-06-01T11:31:28.681Z,2.08
2018-06-01T11:33:57.887Z,2.17
2018-06-01T11:36:27.071Z,2.12
2018-06-01T11:38:55.612Z,1.95
2018-06-01T11:41:24.145Z,2.10
2018-06-01T11:43:53.443Z,2.10
2018-06-01T11:46:21.889Z,1.77
2018-06-01T11:48:50.324Z,1.77
2018-06-01T11:51:19.584Z,1.90
2018-06-01T11:53:48.034Z,2.00
2018-06-01T11:56:17.207Z,1.90
2018-06-01T11:58:45.627Z,2.12
2018-06-01T12:01:14.090Z,1.92
2018-06-01T12:03:43.297Z,2.00
2018-06-01T12:06:12.499Z,2.30
2018-06-01T12:08:41.662Z,2.20
2018-06-01T12:11:10.246Z,2.10
2018-06-01T12:13:38.673Z,1.87
2018-06-01T12:16:07.151Z,2.12
2018-06-01T12:18:36.361Z,2.12
2018-06-01T12:21:05.584Z,2.00
2018-06-01T12:23:33.996Z,2.05
2018-06-01T12:26:02.455Z,2.10
2018-06-01T12:28:30.868Z,2.30
2018-06-01T12:30:59.329Z,2.08
2018-06-01T12:33:27.750Z,1.90
2018-06-01T12:35:56.227Z,2.03
2018-06-01T12:38:24.636Z,2.08
2018-06-01T12:40:53.086Z,2.00
2018-06-01T12:43:21.487Z,2.20
2018-06-01T12:45:49.975Z,2.03
2018-06-01T12:48:18.400Z,2.00
2018-06-01T12:50:47.624Z,1.90
2018-06-01T12:53:16.032Z,2.05
2018-06-01T12:55:44.507Z,2.03
2018-06-01T12:58:12.963Z,2.00
2018-06-01T13:00:41.407Z,1.60
2018-06-01T13:03:09.895Z,2.20
2018-06-01T13:05:38.342Z,1.80
2018-06-01T13:08:06.928Z,1.90
2018-06-01T13:10:36.179Z,1.90
2018-06-01T13:13:04.617Z,1.90
2018-06-01T13:15:33.119Z,1.98
2018-06-01T13:18:01.523Z,2.20
2018-06-01T13:20:30.083Z,2.10
2018-06-01T13:22:59.232Z,2.05
2018-06-01T13:25:28.442Z,2.00
2018-06-01T13:27:57.607Z,1.90
2018-06-01T13:30:26.059Z,2.20
2018-06-01T13:32:54.665Z,1.95
2018-06-01T13:35:23.112Z,2.10
2018-06-01T13:37:51.519Z,1.90
2018-06-01T13:40:19.995Z,2.00
2018-06-01T13:42:48.391Z,2.20
2018-06-01T13:45:17.800Z,1.80
2018-06-01T13:47:46.247Z,1.70
2018-06-01T13:50:15.490Z,2.00
2018-06-01T13:52:43.931Z,1.77
2018-06-01T13:55:13.095Z,1.80
2018-06-01T13:57:41.528Z,1.70
2018-06-01T14:00:09.958Z,1.70
2018-06-01T14:02:38.615Z,1.70
2018-06-01T14:05:07.043Z,1.85
2018-06-01T14:07:35.498Z,1.83
2018-06-01T14:10:03.922Z,1.65
2018-06-01T14:12:33.188Z,1.60
2018-06-01T14:15:01.604Z,1.70
2018-06-01T14:17:30.859Z,1.87
2018-06-01T14:19:59.267Z,2.20
2018-06-01T14:22:27.760Z,2.20
2018-06-01T14:24:56.176Z,1.77
2018-06-01T14:27:24.654Z,1.77
2018-06-01T14:29:53.900Z,4.40
2018-06-01T14:32:22.341Z,1.98
2018-06-01T14:34:50.755Z,2.75
2018-06-01T14:37:19.220Z,1.90
2018-06-01T14:39:48.393Z,2.00
2018-06-01T14:42:17.269Z,2.03
2018-06-01T14:44:45.689Z,1.92
2018-06-01T14:47:14.162Z,2.35
2018-06-01T14:49:42.559Z,2.15
2018-06-01T14:52:10.991Z,2.10
2018-06-01T14:54:39.415Z,4.85
2018-06-01T14:57:07.856Z,2.20
2018-06-01T14:59:36.275Z,1.90
2018-06-01T15:02:04.811Z,1.95
2018-06-01T15:04:33.240Z,3.30
2018-06-01T15:07:01.672Z,3.10
2018-06-01T15:09:30.847Z,2.92
2018-06-01T15:11:59.263Z,2.28
2018-06-01T15:14:28.475Z,2.80
2018-06-01T15:16:56.931Z,2.60
2018-06-01T15:19:25.477Z,3.10
2018-06-01T15:21:53.948Z,2.22
2018-06-01T15:24:22.351Z,2.00
2018-06-01T15:26:50.803Z,2.20
2018-06-01T15:29:19.234Z,1.90
2018-06-01T15:31:47.676Z,2.00
2018-06-01T15:34:16.073Z,1.90
2018-06-01T15:36:44.553Z,1.60
2018-06-01T15:39:13.003Z,1.73
2018-06-01T15:41:42.261Z,1.80
2018-06-01T15:44:10.695Z,1.90
2018-06-01T15:46:39.933Z,1.65
2018-06-01T15:49:08.472Z,1.83
2018-06-01T15:51:36.904Z,1.70
2018-06-01T15:54:05.432Z,1.87
2018-06-01T15:56:33.844Z,1.75
2018-06-01T15:59:03.079Z,2.17
2018-06-01T16:01:31.476Z,2.25
2018-06-01T16:03:59.983Z,1.83
2018-06-01T16:06:28.388Z,2.20
2018-06-01T16:08:56.932Z,2.05
2018-06-01T16:11:25.326Z,1.90
2018-06-01T16:13:53.763Z,1.90
2018-06-01T16:16:22.960Z,1.90
2018-06-01T16:18:52.177Z,1.65
2018-06-01T16:21:20.608Z,1.73
2018-06-01T16:23:49.161Z,1.95
2018-06-01T16:26:17.570Z,2.00
2018-06-01T16:28:46.017Z,2.00
2018-06-01T16:31:14.434Z,3.22
2018-06-01T16:33:42.883Z,2.85
2018-06-01T16:36:11.309Z,3.40
2018-06-01T16:38:39.767Z,1.90
2018-06-01T16:41:08.199Z,2.50
2018-06-01T16:43:36.661Z,2.30
2018-06-01T16:46:05.089Z,2.50
2018-06-01T16:48:33.520Z,2.60
2018-06-01T16:51:01.944Z,2.33
2018-06-01T16:53:30.392Z,2.47
2018-06-01T16:55:58.800Z,4.22
2018-06-01T16:58:27.240Z,2.28
2018-06-01T17:00:55.641Z,2.30
2018-06-01T17:03:24.863Z,2.37
2018-06-01T17:05:53.404Z,2.37
2018-06-01T17:08:21.841Z,2.40
2018-06-01T17:10:50.253Z,2.40
2018-06-01T17:13:19.457Z,2.15
2018-06-01T17:15:48.633Z,2.15
2018-06-01T17:18:17.081Z,2.50
2018-06-01T17:20:45.660Z,2.70
2018-06-01T17:23:14.116Z,2.25
2018-06-01T17:25:43.299Z,2.00
2018-06-01T17:28:11.746Z,2.25
2018-06-01T17:30:40.506Z,2.37
2018-06-01T17:33:09.178Z,2.50
2018-06-01T17:35:38.824Z,1.67
2018-06-01T17:38:07.218Z,1.73
2018-06-01T17:40:35.663Z,2.12
2018-06-01T17:43:04.843Z,1.90
2018-06-01T17:45:34.067Z,1.90
2018-06-01T17:48:03.252Z,1.80
2018-06-01T17:50:31.712Z,1.70
2018-06-01T17:53:00.134Z,1.77
2018-06-01T17:55:29.329Z,1.77
2018-06-01T17:57:57.730Z,1.90
2018-06-01T18:00:26.934Z,1.70
2018-06-01T18:02:56.153Z,1.80
2018-06-01T18:05:24.594Z,1.62
2018-06-01T18:07:52.994Z,1.57
2018-06-01T18:10:22.192Z,1.60
2018-06-01T18:12:50.599Z,1.55
2018-06-01T18:15:19.041Z,1.83
2018-06-01T18:17:47.450Z,1.75
2018-06-01T18:20:16.656Z,1.83
2018-06-01T18:22:45.846Z,1.95
2018-06-01T18:25:15.063Z,2.20
2018-06-01T18:27:44.331Z,1.90
2018-06-01T18:30:12.771Z,1.80
2018-06-01T18:32:41.201Z,2.00
2018-06-01T18:35:09.644Z,2.22
2018-06-01T18:37:38.055Z,2.00
2018-06-01T18:40:06.506Z,1.90
2018-06-01T18:42:34.969Z,2.05
2018-06-01T18:45:04.236Z,2.20
2018-06-01T18:47:32.672Z,2.08
2018-06-01T18:50:01.122Z,1.95
2018-06-01T18:52:29.597Z,2.00
2018-06-01T18:54:58.043Z,2.00
2018-06-01T18:57:26.488Z,2.22
2018-06-01T18:59:55.701Z,2.12
2018-06-01T19:02:24.956Z,2.08
2018-06-01T19:04:53.410Z,2.05
2018-06-01T19:07:21.821Z,1.90
2018-06-01T19:09:50.261Z,2.00
2018-06-01T19:12:19.464Z,2.05
2018-06-01T19:14:47.960Z,1.87
2018-06-01T19:17:16.368Z,1.80
2018-06-01T19:19:44.798Z,1.80
2018-06-01T19:22:13.243Z,1.70
2018-06-01T19:24:41.675Z,1.70
2018-06-01T19:27:11.723Z,1.70
2018-06-01T19:29:40.132Z,1.60
2018-06-01T19:32:08.577Z,1.80
2018-06-01T19:34:37.794Z,1.80
2018-06-01T19:37:06.231Z,1.67
2018-06-01T19:39:34.648Z,1.80
2018-06-01T19:42:03.089Z,1.90
2018-06-01T19:44:31.510Z,1.80
2018-06-01T19:47:00.725Z,2.00
2018-06-01T19:49:29.903Z,1.92
2018-06-01T19:51:58.337Z,2.03
2018-06-01T19:54:26.760Z,1.95
2018-06-01T19:56:55.206Z,1.80
2018-06-01T19:59:23.625Z,1.83
2018-06-01T20:01:52.860Z,1.83
2018-06-01T20:04:22.032Z,2.10
2018-06-01T20:06:50.495Z,1.87
2018-06-01T20:09:18.914Z,1.90
2018-06-01T20:11:48.140Z,2.05
2018-06-01T20:14:16.565Z,1.90
2018-06-01T20:16:45.016Z,1.92
2018-06-01T20:19:13.462Z,2.05
2018-06-01T20:21:42.751Z,1.80
2018-06-01T20:24:11.161Z,1.85
2018-06-01T20:26:40.365Z,2.05
2018-06-01T20:29:09.595Z,1.70
2018-06-01T20:31:38.015Z,2.20
2018-06-01T20:34:06.510Z,2.10
2018-06-01T20:36:34.956Z,1.98
2018-06-01T20:39:03.395Z,1.77
2018-06-01T20:41:31.870Z,2.30
2018-06-01T20:44:00.306Z,8.98
2018-06-01T20:46:28.743Z,16.30
2018-06-01T20:48:57.173Z,12.75
2018-06-01T20:51:25.675Z,16.17
2018-06-01T20:53:54.092Z,27.87
2018-06-01T20:56:22.569Z,12.00
2018-06-01T20:58:50.988Z,4.22
2018-06-01T21:01:20.220Z,3.12
2018-06-01T21:03:48.633Z,3.70
2018-06-01T21:06:17.101Z,2.50
2018-06-01T21:08:45.545Z,2.33
2018-06-01T21:11:14.007Z,2.50
2018-06-01T21:13:42.470Z,2.30
2018-06-01T21:16:10.918Z,2.45
2018-06-01T21:18:39.430Z,2.30
2018-06-01T21:21:10.945Z,2.10
2018-06-01T21:23:41.116Z,1.95
2018-06-01T21:26:09.627Z,2.00
2018-06-01T21:28:38.080Z,2.20
2018-06-01T21:31:06.541Z,2.22
2018-06-01T21:33:34.992Z,1.98
2018-06-01T21:36:03.403Z,2.00
2018-06-01T21:38:31.881Z,3.40
2018-06-01T21:41:00.296Z,3.30
2018-06-01T21:43:28.737Z,3.83
2018-06-01T21:45:58.351Z,4.05
2018-06-01T21:48:28.920Z,3.00
2018-06-01T21:50:57.354Z,2.80
2018-06-01T21:53:25.796Z,2.40
2018-06-01T21:55:54.519Z,2.40
2018-06-01T21:58:22.976Z,2.62
2018-06-01T22:00:54.783Z,2.30
2018-06-01T22:03:24.005Z,2.40
2018-06-01T22:05:53.183Z,2.50
2018-06-01T22:08:21.862Z,2.30
2018-06-01T22:10:50.290Z,2.40
2018-06-01T22:13:19.502Z,2.65
2018-06-01T22:15:47.915Z,2.40
2018-06-01T22:18:16.372Z,2.62
2018-06-01T22:20:44.784Z,2.60
2018-06-01T22:23:13.288Z,3.20
2018-06-01T22:25:41.701Z,3.10
2018-06-01T22:28:10.907Z,2.90
2018-06-01T22:30:40.095Z,2.85
2018-06-01T22:33:08.672Z,2.80
2018-06-01T22:35:37.090Z,3.00
2018-06-01T22:38:05.740Z,3.00
2018-06-01T22:40:34.348Z,3.10
2018-06-01T22:43:03.567Z,3.33
2018-06-01T22:45:31.978Z,3.00
2018-06-01T22:48:00.458Z,2.90
2018-06-01T22:50:28.873Z,2.78
2018-06-01T22:52:57.365Z,2.58
2018-06-01T22:55:25.767Z,2.78
2018-06-01T22:57:54.218Z,2.78
2018-06-01T23:03:23.781Z,2.50
2018-06-01T23:05:52.950Z,2.70
2018-06-01T23:08:21.413Z,2.50
2018-06-01T23:10:49.823Z,2.55
2018-06-01T23:13:18.272Z,2.20
2018-06-01T23:15:46.698Z,2.70
2018-06-01T23:18:15.135Z,2.55
2018-06-01T23:20:43.530Z,2.60
2018-06-01T23:23:11.982Z,2.50
2018-06-01T23:25:41.223Z,2.50
2018-06-01T23:28:09.668Z,2.78
2018-06-01T23:30:45.571Z,2.60
2018-06-01T23:33:14.021Z,2.40
2018-06-01T23:35:42.430Z,2.50
2018-06-01T23:38:10.876Z,2.70
2018-06-01T23:40:40.042Z,2.37
2018-06-01T23:43:08.483Z,2.67
2018-06-01T23:45:36.902Z,2.65
2018-06-01T23:48:05.314Z,2.43
2018-06-01T23:50:33.762Z,2.45
2018-06-01T23:53:02.177Z,2.50
2018-06-01T23:55:30.611Z,2.60
2018-06-01T23:57:59.051Z,2.50
